Time;durP1;ratioP1;P1;durP2;ratioP2;P2;SDS_P1;SDS_P2;PMS_P1;PMS_P2;Temp;Humidity;BMP_temperature;BMP_pressure;BME280_temperature;BME280_humidity;BME280_pressure;Samples;Min_cycle;Max_cycle;Signal;HPM_P1;HPM_P2
2021/08/19 00:01:30;;;;;;;;;5.67;5.67;;;;;;;;5162076;27;45327;-74
2021/08/19 00:03:55;;;;;;;;;3.33;3.33;;;;;;;;5161967;27;45431;-73
2021/08/19 00:06:20;;;;;;;;;3.00;3.00;;;;;;;;5161917;27;46039;-74
2021/08/19 00:08:46;;;;;;;;;5.00;5.00;;;;;;;;5161972;27;45369;-74
2021/08/19 00:11:12;;;;;;;;;3.67;3.67;;;;;;;;5162123;27;45293;-73
2021/08/19 00:13:38;;;;;;;;;6.00;4.67;;;;;;;;5161848;27;45315;-73
2021/08/19 00:16:03;;;;;;;;;3.00;3.00;;;;;;;;5161578;27;45373;-73
2021/08/19 00:18:29;;;;;;;;;6.67;4.67;;;;;;;;5163791;27;45304;-73
2021/08/19 00:20:54;;;;;;;;;5.67;5.67;;;;;;;;5179082;27;45360;-73
2021/08/19 00:23:20;;;;;;;;;5.00;5.00;;;;;;;;5186358;27;45193;-74
2021/08/19 00:25:45;;;;;;;;;5.67;5.33;;;;;;;;5186492;27;45508;-73
2021/08/19 00:28:10;;;;;;;;;4.00;4.00;;;;;;;;5186527;27;45226;-73
2021/08/19 00:30:36;;;;;;;;;5.33;5.33;;;;;;;;5175113;27;45575;-73
2021/08/19 00:33:02;;;;;;;;;4.00;4.00;;;;;;;;5164921;27;45214;-72
2021/08/19 00:35:27;;;;;;;;;3.67;3.67;;;;;;;;5165121;27;45648;-73
2021/08/19 00:37:52;;;;;;;;;5.00;5.00;;;;;;;;5165049;27;45317;-73
2021/08/19 00:40:18;;;;;;;;;4.67;3.67;;;;;;;;5165280;27;45280;-73
2021/08/19 00:42:43;;;;;;;;;4.33;3.67;;;;;;;;5165092;27;45312;-73
2021/08/19 00:45:09;;;;;;;;;4.67;4.67;;;;;;;;5165016;27;45419;-74
2021/08/19 00:47:37;;;;;;;;;2.33;2.33;;;;;;;;5164886;27;45328;-73
2021/08/19 00:50:03;;;;;;;;;4.00;4.00;;;;;;;;5165287;27;45332;-73
2021/08/19 00:52:29;;;;;;;;;4.33;4.33;;;;;;;;5164809;27;45304;-73
2021/08/19 00:54:55;;;;;;;;;5.33;4.00;;;;;;;;5164844;27;45317;-73
2021/08/19 00:57:21;;;;;;;;;6.00;4.33;;;;;;;;5164913;27;45258;-73
2021/08/19 00:59:47;;;;;;;;;3.00;3.00;;;;;;;;5164917;27;45252;-73
2021/08/19 01:02:13;;;;;;;;;5.33;5.33;;;;;;;;5164630;27;45504;-74
2021/08/19 01:04:38;;;;;;;;;2.00;2.00;;;;;;;;5164689;27;45310;-73
2021/08/19 01:07:07;;;;;;;;;2.00;2.00;;;;;;;;5164613;27;45432;-73
2021/08/19 01:09:34;;;;;;;;;3.67;3.67;;;;;;;;5164789;27;45289;-73
2021/08/19 01:11:59;;;;;;;;;3.33;2.67;;;;;;;;5164518;27;45160;-74
2021/08/19 01:14:25;;;;;;;;;4.00;3.00;;;;;;;;5164501;27;46171;-74
2021/08/19 01:16:50;;;;;;;;;3.00;3.00;;;;;;;;5164490;27;45155;-74
2021/08/19 01:19:16;;;;;;;;;3.00;2.00;;;;;;;;5164655;27;45193;-75
2021/08/19 01:21:42;;;;;;;;;3.67;3.00;;;;;;;;5163950;27;45213;-73
2021/08/19 01:24:08;;;;;;;;;2.00;2.00;;;;;;;;5164282;27;46137;-73
2021/08/19 01:26:33;;;;;;;;;2.33;2.33;;;;;;;;5164414;27;45320;-73
2021/08/19 01:28:59;;;;;;;;;3.00;3.00;;;;;;;;5164343;27;45267;-73
2021/08/19 01:31:25;;;;;;;;;3.00;3.00;;;;;;;;5163851;27;45690;-73
2021/08/19 01:33:51;;;;;;;;;4.00;2.00;;;;;;;;5164098;27;46221;-74
2021/08/19 01:36:16;;;;;;;;;1.33;1.33;;;;;;;;5163995;27;45330;-73
2021/08/19 01:38:42;;;;;;;;;4.00;4.00;;;;;;;;5164350;27;45635;-74
2021/08/19 01:41:08;;;;;;;;;3.33;3.33;;;;;;;;5144977;27;45845;-73
2021/08/19 01:43:36;;;;;;;;;2.67;2.67;;;;;;;;5164018;27;45873;-74
2021/08/19 01:46:02;;;;;;;;;2.67;2.67;;;;;;;;5163887;27;45217;-74
2021/08/19 01:48:28;;;;;;;;;3.00;3.00;;;;;;;;5164199;27;45269;-74
2021/08/19 01:50:54;;;;;;;;;2.33;2.33;;;;;;;;5163872;27;45213;-74
2021/08/19 01:53:19;;;;;;;;;5.00;4.00;;;;;;;;5163779;27;45360;-74
2021/08/19 01:55:45;;;;;;;;;3.00;3.00;;;;;;;;5163966;27;45379;-73
2021/08/19 01:58:10;;;;;;;;;5.33;4.33;;;;;;;;5163959;27;45300;-75
2021/08/19 02:00:36;;;;;;;;;3.33;3.33;;;;;;;;5163765;27;45454;-73
2021/08/19 02:03:02;;;;;;;;;4.67;3.00;;;;;;;;5144596;27;47024;-74
2021/08/19 02:05:28;;;;;;;;;2.67;2.67;;;;;;;;5163817;27;45328;-74
2021/08/19 02:07:53;;;;;;;;;5.67;2.00;;;;;;;;5144879;27;45279;-75
2021/08/19 02:10:18;;;;;;;;;3.00;3.00;;;;;;;;5163587;27;45350;-74
2021/08/19 02:12:45;;;;;;;;;2.67;1.67;;;;;;;;5163475;27;46078;-74
2021/08/19 02:15:11;;;;;;;;;3.00;3.00;;;;;;;;5163684;27;45213;-73
2021/08/19 02:17:36;;;;;;;;;3.00;3.00;;;;;;;;5163393;27;45186;-73
2021/08/19 02:20:01;;;;;;;;;1.33;1.33;;;;;;;;5169055;27;45492;-74
2021/08/19 02:22:27;;;;;;;;;3.67;3.67;;;;;;;;5184436;27;46153;-74
2021/08/19 02:24:52;;;;;;;;;1.67;1.67;;;;;;;;5184485;27;45186;-73
2021/08/19 02:27:17;;;;;;;;;2.67;2.67;;;;;;;;5165689;27;45316;-74
2021/08/19 02:29:43;;;;;;;;;3.33;3.33;;;;;;;;5161558;27;45759;-75
2021/08/19 02:32:08;;;;;;;;;2.00;2.00;;;;;;;;5162962;27;46023;-75
2021/08/19 02:34:33;;;;;;;;;2.00;2.00;;;;;;;;5163401;27;45324;-73
2021/08/19 02:36:59;;;;;;;;;1.33;1.33;;;;;;;;5163252;27;45458;-74
2021/08/19 02:39:24;;;;;;;;;3.33;3.33;;;;;;;;5163095;27;45384;-74
2021/08/19 02:41:49;;;;;;;;;3.33;2.33;;;;;;;;5162354;27;45391;-74
2021/08/19 02:44:15;;;;;;;;;1.67;1.67;;;;;;;;5163225;27;45391;-73
2021/08/19 02:46:40;;;;;;;;;3.00;3.00;;;;;;;;5163174;27;45315;-73
2021/08/19 02:49:05;;;;;;;;;1.00;1.00;;;;;;;;5162917;27;45396;-73
2021/08/19 02:51:31;;;;;;;;;3.67;2.33;;;;;;;;5162865;27;46481;-72
2021/08/19 02:53:56;;;;;;;;;1.00;1.00;;;;;;;;5163072;27;45303;-74
2021/08/19 02:56:23;;;;;;;;;3.00;2.50;;;;;;;;5163125;27;45247;-73
2021/08/19 02:58:48;;;;;;;;;3.00;3.00;;;;;;;;5162920;27;45297;-73
2021/08/19 03:01:13;;;;;;;;;4.00;3.00;;;;;;;;5162545;27;46107;-73
2021/08/19 03:03:39;;;;;;;;;3.67;3.33;;;;;;;;5162998;27;45347;-73
2021/08/19 03:06:04;;;;;;;;;2.00;2.00;;;;;;;;5163000;27;45710;-74
2021/08/19 03:08:29;;;;;;;;;2.00;2.00;;;;;;;;5162669;27;45421;-73
2021/08/19 03:10:54;;;;;;;;;2.00;2.00;;;;;;;;5162695;27;45565;-73
2021/08/19 03:13:20;;;;;;;;;2.00;2.00;;;;;;;;5162839;27;45219;-73
2021/08/19 03:15:45;;;;;;;;;3.00;2.00;;;;;;;;5162717;27;45473;-73
2021/08/19 03:18:10;;;;;;;;;1.00;1.00;;;;;;;;5162578;27;45449;-73
2021/08/19 03:20:36;;;;;;;;;3.00;3.00;;;;;;;;5162185;27;46286;-73
2021/08/19 03:23:01;;;;;;;;;2.33;2.33;;;;;;;;5162454;27;45263;-73
2021/08/19 03:25:27;;;;;;;;;3.00;2.67;;;;;;;;5162658;27;45247;-73
2021/08/19 03:28:00;;;;;;;;;2.67;2.67;;;;;;;;5162583;27;45487;-73
2021/08/19 03:30:25;;;;;;;;;2.33;2.33;;;;;;;;5162242;27;45284;-73
2021/08/19 03:32:51;;;;;;;;;1.00;1.00;;;;;;;;5162068;27;45297;-73
2021/08/19 03:35:16;;;;;;;;;3.33;3.33;;;;;;;;5162573;27;45300;-73
2021/08/19 03:37:41;;;;;;;;;3.33;3.00;;;;;;;;5162247;27;45356;-73
2021/08/19 03:40:07;;;;;;;;;3.33;3.33;;;;;;;;5162082;27;46163;-74
2021/08/19 03:42:32;;;;;;;;;2.00;1.33;;;;;;;;5162439;27;45331;-73
2021/08/19 03:44:58;;;;;;;;;3.33;3.33;;;;;;;;5162405;27;45393;-73
2021/08/19 03:47:23;;;;;;;;;4.67;3.67;;;;;;;;5162069;27;45701;-73
2021/08/19 03:49:49;;;;;;;;;3.00;3.00;;;;;;;;5162184;27;45316;-73
2021/08/19 03:52:14;;;;;;;;;4.00;4.00;;;;;;;;5143313;27;45395;-73
2021/08/19 03:54:39;;;;;;;;;3.00;1.67;;;;;;;;5166076;27;45354;-73
2021/08/19 03:57:05;;;;;;;;;2.67;2.67;;;;;;;;5165812;27;45318;-73
2021/08/19 03:59:30;;;;;;;;;3.00;3.00;;;;;;;;5165700;27;45385;-72
2021/08/19 04:01:55;;;;;;;;;3.33;3.33;;;;;;;;5165540;27;45342;-73
2021/08/19 04:04:21;;;;;;;;;3.67;3.67;;;;;;;;5166042;27;45279;-73
2021/08/19 04:06:46;;;;;;;;;3.00;2.00;;;;;;;;5165629;27;45327;-73
2021/08/19 04:09:11;;;;;;;;;2.67;2.67;;;;;;;;5165436;27;45358;-73
2021/08/19 04:11:37;;;;;;;;;3.33;3.00;;;;;;;;5165674;27;45376;-74
2021/08/19 04:14:02;;;;;;;;;4.33;4.33;;;;;;;;5165728;27;45276;-73
2021/08/19 04:16:27;;;;;;;;;2.00;2.00;;;;;;;;5165279;27;45597;-73
2021/08/19 04:18:53;;;;;;;;;4.00;2.00;;;;;;;;5165428;27;46171;-75
2021/08/19 04:21:18;;;;;;;;;3.33;3.33;;;;;;;;5179945;27;45280;-73
2021/08/19 04:23:44;;;;;;;;;2.00;2.00;;;;;;;;5186793;27;45282;-73
2021/08/19 04:26:10;;;;;;;;;3.67;3.67;;;;;;;;5186491;27;45280;-73
2021/08/19 04:28:36;;;;;;;;;5.00;4.00;;;;;;;;5186393;27;45322;-73
2021/08/19 04:31:01;;;;;;;;;2.67;2.67;;;;;;;;5171216;27;45271;-73
2021/08/19 04:33:28;;;;;;;;;4.00;3.00;;;;;;;;5165196;27;45223;-73
2021/08/19 04:35:54;;;;;;;;;5.67;4.67;;;;;;;;5165404;27;45561;-73
2021/08/19 04:38:19;;;;;;;;;4.00;4.00;;;;;;;;5164929;27;45936;-73
2021/08/19 04:40:45;;;;;;;;;3.00;3.00;;;;;;;;5165120;27;45317;-74
2021/08/19 04:43:10;;;;;;;;;2.00;2.00;;;;;;;;5165270;27;45332;-73
2021/08/19 04:45:35;;;;;;;;;4.00;3.33;;;;;;;;5165017;27;45450;-73
2021/08/19 04:48:01;;;;;;;;;3.00;3.00;;;;;;;;5164833;27;45393;-73
2021/08/19 04:50:26;;;;;;;;;3.00;3.00;;;;;;;;5165044;27;45230;-73
2021/08/19 04:52:52;;;;;;;;;3.00;2.33;;;;;;;;5164979;27;45369;-73
2021/08/19 04:55:17;;;;;;;;;2.67;2.67;;;;;;;;5164919;27;45359;-73
2021/08/19 04:57:42;;;;;;;;;3.00;3.00;;;;;;;;5164821;27;45881;-73
2021/08/19 05:00:09;;;;;;;;;3.00;3.00;;;;;;;;5164744;27;45302;-71
2021/08/19 05:02:34;;;;;;;;;2.00;2.00;;;;;;;;5164819;27;45289;-72
2021/08/19 05:04:59;;;;;;;;;2.00;2.00;;;;;;;;5164231;27;45398;-72
2021/08/19 05:07:26;;;;;;;;;4.00;4.00;;;;;;;;5164519;27;45488;-73
2021/08/19 05:09:51;;;;;;;;;3.33;3.33;;;;;;;;5164674;27;45262;-73
2021/08/19 05:12:17;;;;;;;;;3.00;3.00;;;;;;;;5164868;27;45312;-73
2021/08/19 05:14:42;;;;;;;;;3.33;3.33;;;;;;;;5164536;27;45493;-74
2021/08/19 05:17:07;;;;;;;;;3.67;3.67;;;;;;;;5164301;27;45291;-73
2021/08/19 05:19:33;;;;;;;;;3.00;3.00;;;;;;;;5164475;27;45314;-73
2021/08/19 05:21:59;;;;;;;;;4.33;3.00;;;;;;;;5164355;27;45511;-72
2021/08/19 05:24:24;;;;;;;;;2.67;2.67;;;;;;;;5141250;27;45410;-72
2021/08/19 05:26:49;;;;;;;;;8.00;4.00;;;;;;;;5112206;27;45470;-72
2021/08/19 05:29:15;;;;;;;;;3.33;3.33;;;;;;;;5131327;27;45494;-72
2021/08/19 05:31:40;;;;;;;;;3.33;3.33;;;;;;;;5114531;27;45436;-72
2021/08/19 05:34:08;;;;;;;;;2.67;2.00;;;;;;;;5129996;27;45567;-72
2021/08/19 05:36:33;;;;;;;;;2.00;2.00;;;;;;;;5129600;27;46197;-73
2021/08/19 05:38:59;;;;;;;;;3.00;2.00;;;;;;;;5131927;27;45286;-72
2021/08/19 05:41:24;;;;;;;;;5.33;5.33;;;;;;;;5132207;27;45261;-72
2021/08/19 05:43:49;;;;;;;;;4.33;3.67;;;;;;;;5130398;27;45213;-72
2021/08/19 05:46:15;;;;;;;;;3.00;3.00;;;;;;;;5130982;27;45256;-72
2021/08/19 05:48:40;;;;;;;;;4.00;3.33;;;;;;;;5131884;27;45331;-72
2021/08/19 05:51:05;;;;;;;;;3.67;3.00;;;;;;;;5129979;27;45264;-72
2021/08/19 05:53:31;;;;;;;;;3.00;3.00;;;;;;;;5131781;27;45304;-75
2021/08/19 05:55:56;;;;;;;;;2.00;2.00;;;;;;;;5112421;27;47043;-72
2021/08/19 05:58:22;;;;;;;;;4.00;4.00;;;;;;;;5129999;27;45219;-72
2021/08/19 06:00:48;;;;;;;;;4.67;4.33;;;;;;;;5131896;27;45583;-73
2021/08/19 06:03:16;;;;;;;;;3.67;3.00;;;;;;;;5133445;27;45629;-72
2021/08/19 06:05:42;;;;;;;;;3.00;3.00;;;;;;;;5129277;27;46016;-73
2021/08/19 06:08:07;;;;;;;;;3.33;3.33;;;;;;;;5121828;27;45354;-73
2021/08/19 06:10:33;;;;;;;;;6.00;6.00;;;;;;;;5122070;27;45349;-72
2021/08/19 06:12:58;;;;;;;;;6.00;3.33;;;;;;;;5121884;27;45349;-72
2021/08/19 06:15:24;;;;;;;;;5.67;5.67;;;;;;;;5120652;27;45735;-73
2021/08/19 06:17:49;;;;;;;;;4.00;4.00;;;;;;;;5121752;27;45222;-72
2021/08/19 06:20:14;;;;;;;;;4.00;4.00;;;;;;;;5127160;27;45576;-72
2021/08/19 06:22:40;;;;;;;;;3.67;3.67;;;;;;;;5142462;27;45517;-72
2021/08/19 06:25:05;;;;;;;;;7.33;7.33;;;;;;;;5142418;27;45406;-72
2021/08/19 06:27:30;;;;;;;;;8.33;7.33;;;;;;;;5142381;27;45255;-74
2021/08/19 06:29:56;;;;;;;;;1.00;1.00;;;;;;;;5145180;27;46535;-73
2021/08/19 06:32:21;;;;;;;;;5.00;5.00;;;;;;;;5148376;27;45339;-73
2021/08/19 06:34:46;;;;;;;;;4.33;4.33;;;;;;;;5163075;27;45238;-74
2021/08/19 06:37:12;;;;;;;;;4.33;4.33;;;;;;;;5162490;27;45268;-74
2021/08/19 06:39:37;;;;;;;;;5.67;5.67;;;;;;;;5162768;27;45341;-74
2021/08/19 06:42:03;;;;;;;;;7.67;7.67;;;;;;;;5163012;27;45263;-74
2021/08/19 06:44:28;;;;;;;;;7.33;7.33;;;;;;;;5163084;27;45529;-77
2021/08/19 06:46:53;;;;;;;;;11.67;10.67;;;;;;;;5163637;27;45336;-76
2021/08/19 06:49:19;;;;;;;;;9.33;9.33;;;;;;;;5163007;27;45327;-77
2021/08/19 06:51:44;;;;;;;;;7.00;7.00;;;;;;;;5160045;27;45303;-76
2021/08/19 06:54:09;;;;;;;;;5.67;5.00;;;;;;;;5151768;27;45277;-76
2021/08/19 06:56:35;;;;;;;;;6.67;6.67;;;;;;;;5149805;27;45360;-78
2021/08/19 06:59:00;;;;;;;;;5.67;5.67;;;;;;;;5151284;27;45636;-77
2021/08/19 07:01:25;;;;;;;;;8.67;7.00;;;;;;;;5150991;27;45239;-77
2021/08/19 07:03:51;;;;;;;;;5.67;5.67;;;;;;;;5155915;27;45389;-77
2021/08/19 07:06:16;;;;;;;;;8.67;7.33;;;;;;;;5162691;27;45349;-76
2021/08/19 07:08:42;;;;;;;;;7.33;7.33;;;;;;;;5162897;27;45430;-77
2021/08/19 07:11:07;;;;;;;;;5.67;5.67;;;;;;;;5143867;27;46605;-76
2021/08/19 07:13:32;;;;;;;;;7.67;7.00;;;;;;;;5148912;27;46167;-74
2021/08/19 07:15:58;;;;;;;;;6.00;4.67;;;;;;;;5157504;27;45320;-74
2021/08/19 07:18:23;;;;;;;;;6.33;6.33;;;;;;;;5160222;27;45455;-74
2021/08/19 07:20:49;;;;;;;;;6.00;6.00;;;;;;;;5148888;27;45289;-74
2021/08/19 07:23:14;;;;;;;;;7.00;6.00;;;;;;;;5162072;27;45312;-77
2021/08/19 07:25:39;;;;;;;;;7.00;7.00;;;;;;;;5161258;27;45793;-77
2021/08/19 07:28:05;;;;;;;;;8.33;5.00;;;;;;;;5164076;27;45389;-77
2021/08/19 07:30:30;;;;;;;;;7.00;7.00;;;;;;;;5166146;27;45340;-78
2021/08/19 07:32:56;;;;;;;;;6.00;6.00;;;;;;;;5165740;27;46085;-77
2021/08/19 07:35:21;;;;;;;;;7.00;6.00;;;;;;;;5165983;27;45225;-76
2021/08/19 07:37:51;;;;;;;;;4.00;3.33;;;;;;;;5166228;27;45213;-77
2021/08/19 07:40:17;;;;;;;;;6.00;6.00;;;;;;;;5165911;27;45270;-78
2021/08/19 07:42:43;;;;;;;;;6.67;6.67;;;;;;;;5165563;27;45328;-76
2021/08/19 07:45:09;;;;;;;;;7.33;5.67;;;;;;;;5165783;27;45350;-78
2021/08/19 07:47:34;;;;;;;;;7.00;7.00;;;;;;;;5165248;27;45447;-77
2021/08/19 07:50:00;;;;;;;;;6.00;6.00;;;;;;;;5165269;27;45427;-77
2021/08/19 07:52:25;;;;;;;;;5.67;5.67;;;;;;;;5165782;27;45461;-77
2021/08/19 07:54:50;;;;;;;;;5.67;5.67;;;;;;;;5166055;27;45325;-77
2021/08/19 07:57:16;;;;;;;;;8.33;8.33;;;;;;;;5166196;27;45319;-77
2021/08/19 07:59:41;;;;;;;;;7.33;7.33;;;;;;;;5165885;27;45478;-77
2021/08/19 08:02:06;;;;;;;;;5.33;5.33;;;;;;;;5165522;27;46052;-77
2021/08/19 08:04:32;;;;;;;;;6.67;6.67;;;;;;;;5165828;27;45274;-77
2021/08/19 08:06:57;;;;;;;;;6.00;6.00;;;;;;;;5165809;27;45285;-77
2021/08/19 08:09:22;;;;;;;;;6.33;6.33;;;;;;;;5165623;27;45320;-77
2021/08/19 08:11:48;;;;;;;;;5.00;5.00;;;;;;;;5158028;27;45549;-77
2021/08/19 08:14:13;;;;;;;;;5.33;5.33;;;;;;;;5152606;27;45214;-77
2021/08/19 08:16:38;;;;;;;;;6.67;6.67;;;;;;;;5144279;27;45304;-75
2021/08/19 08:19:04;;;;;;;;;6.33;5.33;;;;;;;;5143744;27;45246;-79
2021/08/19 08:21:29;;;;;;;;;5.33;5.33;;;;;;;;5125190;27;46650;-79
2021/08/19 08:23:55;;;;;;;;;8.00;8.00;;;;;;;;5144370;27;45385;-79
2021/08/19 08:26:21;;;;;;;;;4.67;4.67;;;;;;;;5144439;27;45308;-78
2021/08/19 08:28:50;;;;;;;;;7.67;7.67;;;;;;;;5143283;27;45344;-79
2021/08/19 08:31:15;;;;;;;;;6.00;6.00;;;;;;;;5160428;27;45355;-79
2021/08/19 08:33:40;;;;;;;;;7.00;7.00;;;;;;;;5164998;27;45312;-78
2021/08/19 08:36:06;;;;;;;;;6.00;6.00;;;;;;;;5165016;27;45321;-79
2021/08/19 08:38:31;;;;;;;;;10.00;10.00;;;;;;;;5163873;27;45311;-79
2021/08/19 08:40:57;;;;;;;;;7.00;7.00;;;;;;;;5164660;27;45950;-79
2021/08/19 08:43:24;;;;;;;;;8.67;7.67;;;;;;;;5164487;27;45307;-79
2021/08/19 08:45:51;;;;;;;;;13.33;11.67;;;;;;;;5164452;27;45328;-78
2021/08/19 08:48:18;;;;;;;;;8.33;7.67;;;;;;;;5164666;27;45337;-79
2021/08/19 08:50:45;;;;;;;;;7.00;6.00;;;;;;;;5164381;27;46023;-79
2021/08/19 08:53:11;;;;;;;;;8.00;7.33;;;;;;;;5164784;27;45371;-79
2021/08/19 08:55:37;;;;;;;;;8.00;7.00;;;;;;;;5164630;27;45343;-79
2021/08/19 08:58:03;;;;;;;;;8.67;8.67;;;;;;;;5164283;27;45312;-79
2021/08/19 09:00:28;;;;;;;;;8.00;7.00;;;;;;;;5158709;27;46054;-78
2021/08/19 09:02:53;;;;;;;;;9.33;9.33;;;;;;;;5160611;27;45303;-79
2021/08/19 09:05:19;;;;;;;;;13.00;11.00;;;;;;;;5164599;27;45466;-79
2021/08/19 09:07:45;;;;;;;;;10.00;10.00;;;;;;;;5147736;27;45459;-79
2021/08/19 09:10:13;;;;;;;;;11.33;10.00;;;;;;;;5126385;27;46716;-78
2021/08/19 09:12:41;;;;;;;;;11.67;11.00;;;;;;;;5142999;27;45575;-79
2021/08/19 09:15:08;;;;;;;;;11.00;9.00;;;;;;;;5143456;27;45342;-78
2021/08/19 09:17:41;;;;;;;;;11.00;10.00;;;;;;;;5141422;27;45490;-76
2021/08/19 09:20:06;;;;;;;;;9.33;9.33;;;;;;;;5144540;27;45817;-79
2021/08/19 09:22:51;;;;;;;;;10.00;10.00;;;;;;;;5163750;27;45469;-79
2021/08/19 09:25:24;;;;;;;;;10.33;10.00;;;;;;;;5164399;27;45318;-79
2021/08/19 09:28:07;;;;;;;;;10.33;10.00;;;;;;;;5163762;27;45322;-80
2021/08/19 09:30:33;;;;;;;;;12.33;10.33;;;;;;;;5163352;27;45336;-79
2021/08/19 09:32:58;;;;;;;;;11.00;11.00;;;;;;;;5144631;27;45357;-78
2021/08/19 09:35:24;;;;;;;;;14.67;11.00;;;;;;;;5164089;27;45206;-78
2021/08/19 09:37:51;;;;;;;;;10.67;10.00;;;;;;;;5163053;27;45444;-80
2021/08/19 09:40:16;;;;;;;;;10.00;9.00;;;;;;;;5143417;27;47775;-79
2021/08/19 09:42:43;;;;;;;;;11.33;11.33;;;;;;;;5143025;27;45285;-79
2021/08/19 09:45:21;;;;;;;;;8.67;7.67;;;;;;;;5123971;27;45310;-80
2021/08/19 09:47:47;;;;;;;;;15.00;12.33;;;;;;;;5123665;27;45423;-80
2021/08/19 09:50:14;;;;;;;;;11.67;11.00;;;;;;;;5143298;27;45948;-80
2021/08/19 09:52:40;;;;;;;;;9.00;7.67;;;;;;;;5153078;27;45448;-80
2021/08/19 09:55:25;;;;;;;;;9.00;9.00;;;;;;;;5152889;27;45471;-79
2021/08/19 09:57:51;;;;;;;;;10.67;10.67;;;;;;;;5151475;27;45318;-81
2021/08/19 10:00:23;;;;;;;;;13.33;11.67;;;;;;;;5140709;27;45486;-81
2021/08/19 10:02:48;;;;;;;;;11.33;10.33;;;;;;;;5163302;27;45360;-79
2021/08/19 10:05:15;;;;;;;;;12.67;11.33;;;;;;;;5163038;27;45536;-78
2021/08/19 10:07:40;;;;;;;;;10.33;9.00;;;;;;;;5162918;27;45481;-79
2021/08/19 10:10:06;;;;;;;;;13.00;10.33;;;;;;;;5155002;27;45415;-78
2021/08/19 10:12:31;;;;;;;;;11.33;9.00;;;;;;;;5152833;27;45435;-81
2021/08/19 10:14:57;;;;;;;;;11.00;11.00;;;;;;;;5162522;27;45277;-80
2021/08/19 10:17:22;;;;;;;;;11.33;9.67;;;;;;;;5163000;27;45565;-80
2021/08/19 10:19:49;;;;;;;;;11.33;11.33;;;;;;;;5143152;27;48063;-81
2021/08/19 10:22:19;;;;;;;;;10.33;10.33;;;;;;;;5162779;27;45733;-80
2021/08/19 10:24:48;;;;;;;;;10.67;10.67;;;;;;;;5163548;27;45266;-80
2021/08/19 10:27:21;;;;;;;;;10.67;9.00;;;;;;;;5163317;27;45482;-81
2021/08/19 10:29:46;;;;;;;;;10.00;8.33;;;;;;;;5163005;27;46220;-79
2021/08/19 10:32:40;;;;;;;;;10.67;10.00;;;;;;;;5162957;27;45261;-80
2021/08/19 10:35:06;;;;;;;;;11.67;11.67;;;;;;;;5144723;27;45373;-80
2021/08/19 10:37:47;;;;;;;;;11.00;9.33;;;;;;;;5162917;27;45268;-80
2021/08/19 10:40:18;;;;;;;;;11.33;11.33;;;;;;;;5162926;27;46355;-80
2021/08/19 10:42:44;;;;;;;;;9.67;9.00;;;;;;;;5163093;27;45164;-80
2021/08/19 10:45:29;;;;;;;;;7.67;7.67;;;;;;;;5163180;27;45195;-81
2021/08/19 10:48:14;;;;;;;;;8.00;8.00;;;;;;;;5162600;27;45428;-80
2021/08/19 10:50:41;;;;;;;;;8.67;8.67;;;;;;;;5162760;27;45357;-79
2021/08/19 10:53:11;;;;;;;;;9.33;9.33;;;;;;;;5162371;27;45427;-81
2021/08/19 10:55:47;;;;;;;;;9.33;9.00;;;;;;;;5163040;27;45294;-78
2021/08/19 10:58:28;;;;;;;;;11.00;10.33;;;;;;;;5162202;27;45234;-79
2021/08/19 11:01:01;;;;;;;;;12.00;11.00;;;;;;;;5162197;27;45426;-80
2021/08/19 11:03:35;;;;;;;;;7.00;7.00;;;;;;;;5162555;27;45413;-79
2021/08/19 11:06:01;;;;;;;;;11.00;9.00;;;;;;;;5162944;27;45382;-81
2021/08/19 11:08:37;;;;;;;;;10.00;9.00;;;;;;;;5162633;27;45336;-80
2021/08/19 11:11:02;;;;;;;;;11.00;9.67;;;;;;;;5162156;27;45494;-81
2021/08/19 11:13:28;;;;;;;;;8.00;7.67;;;;;;;;5143018;27;45386;-79
2021/08/19 11:15:53;;;;;;;;;11.67;9.00;;;;;;;;5151164;27;45912;-80
2021/08/19 11:18:32;;;;;;;;;11.00;9.00;;;;;;;;5142827;27;45636;-80
2021/08/19 11:20:58;;;;;;;;;12.67;11.67;;;;;;;;5161996;27;45340;-80
2021/08/19 11:23:34;;;;;;;;;8.00;8.00;;;;;;;;5162255;27;45284;-78
2021/08/19 11:26:04;;;;;;;;;11.33;11.33;;;;;;;;5162420;27;45557;-79
2021/08/19 11:28:36;;;;;;;;;9.67;9.00;;;;;;;;5162355;27;45466;-82
2021/08/19 11:31:08;;;;;;;;;10.00;9.00;;;;;;;;5159170;27;45374;-83
2021/08/19 11:33:34;;;;;;;;;10.00;10.00;;;;;;;;5161934;27;45357;-83
2021/08/19 11:36:00;;;;;;;;;9.00;8.00;;;;;;;;5142865;27;45497;-81
2021/08/19 11:38:26;;;;;;;;;8.00;8.00;;;;;;;;5162271;27;45436;-81
2021/08/19 11:40:53;;;;;;;;;9.67;9.00;;;;;;;;5161651;27;46321;-80
2021/08/19 11:43:32;;;;;;;;;6.67;6.67;;;;;;;;5162528;27;45379;-78
2021/08/19 11:46:05;;;;;;;;;7.00;7.00;;;;;;;;5161745;27;45379;-79
2021/08/19 11:48:31;;;;;;;;;7.00;7.00;;;;;;;;5161361;27;45451;-80
2021/08/19 11:50:58;;;;;;;;;6.00;4.33;;;;;;;;5162319;27;45309;-77
2021/08/19 11:53:23;;;;;;;;;8.00;8.00;;;;;;;;5161980;27;45221;-76
2021/08/19 11:55:50;;;;;;;;;7.67;7.33;;;;;;;;5161530;27;45260;-76
2021/08/19 11:58:15;;;;;;;;;6.00;6.00;;;;;;;;5162213;27;45735;-77
2021/08/19 12:01:02;;;;;;;;;5.67;5.00;;;;;;;;5142410;27;48558;-76
2021/08/19 12:03:27;;;;;;;;;7.00;6.67;;;;;;;;5161681;27;45321;-77
2021/08/19 12:06:03;;;;;;;;;8.67;8.67;;;;;;;;5161895;27;45258;-75
2021/08/19 12:08:29;;;;;;;;;4.67;4.33;;;;;;;;5146357;27;45434;-75
2021/08/19 12:10:56;;;;;;;;;8.33;8.33;;;;;;;;5145442;27;46137;-76
2021/08/19 12:13:22;;;;;;;;;6.00;6.00;;;;;;;;5122172;27;45782;-76
2021/08/19 12:15:47;;;;;;;;;8.00;7.67;;;;;;;;5144242;27;45378;-77
2021/08/19 12:18:13;;;;;;;;;9.33;9.00;;;;;;;;5144199;27;45236;-77
2021/08/19 12:20:38;;;;;;;;;7.67;7.67;;;;;;;;5125635;27;45433;-76
2021/08/19 12:23:33;;;;;;;;;10.33;10.33;;;;;;;;5147080;27;45205;-77
2021/08/19 12:26:05;;;;;;;;;10.33;9.00;;;;;;;;5111753;27;45340;-78
2021/08/19 12:28:30;;;;;;;;;6.00;6.00;;;;;;;;5131390;27;46916;-77
2021/08/19 12:30:57;;;;;;;;;4.00;4.00;;;;;;;;5175153;27;44921;-76
2021/08/19 12:33:40;;;;;;;;;4.00;4.00;;;;;;;;5147637;27;45242;-74
2021/08/19 12:36:08;;;;;;;;;6.00;5.00;;;;;;;;5165435;27;45312;-76
2021/08/19 12:38:34;;;;;;;;;5.00;5.00;;;;;;;;5165145;27;45346;-75
2021/08/19 12:41:10;;;;;;;;;6.33;6.33;;;;;;;;5164895;27;45798;-74
2021/08/19 12:43:35;;;;;;;;;6.67;5.00;;;;;;;;5165169;27;45304;-76
2021/08/19 12:46:07;;;;;;;;;6.33;6.33;;;;;;;;5164964;27;45450;-73
2021/08/19 12:48:34;;;;;;;;;6.33;6.33;;;;;;;;5164937;27;45353;-74
2021/08/19 12:51:23;;;;;;;;;12.67;9.67;;;;;;;;5155658;27;45435;-78
2021/08/19 12:54:06;;;;;;;;;6.67;6.67;;;;;;;;5155187;27;45474;-80
2021/08/19 12:56:32;;;;;;;;;7.67;5.33;;;;;;;;5134555;27;45471;-80
2021/08/19 12:58:57;;;;;;;;;6.00;6.00;;;;;;;;5141385;27;46778;-80
2021/08/19 13:01:23;;;;;;;;;6.33;6.33;;;;;;;;5136003;27;45729;-80
2021/08/19 13:03:48;;;;;;;;;7.00;6.00;;;;;;;;5135361;27;45311;-79
2021/08/19 13:06:14;;;;;;;;;7.67;6.00;;;;;;;;5143292;27;45688;-78
2021/08/19 13:08:39;;;;;;;;;7.00;7.00;;;;;;;;5152268;27;45383;-78
2021/08/19 13:11:05;;;;;;;;;8.00;7.33;;;;;;;;5152577;27;46076;-79
2021/08/19 13:13:30;;;;;;;;;7.00;7.00;;;;;;;;5148507;27;45383;-78
2021/08/19 13:15:56;;;;;;;;;5.00;5.00;;;;;;;;5154915;27;45479;-79
2021/08/19 13:18:21;;;;;;;;;9.33;8.33;;;;;;;;5153207;27;45524;-79
2021/08/19 13:20:47;;;;;;;;;7.00;6.33;;;;;;;;5156580;27;45412;-78
2021/08/19 13:23:12;;;;;;;;;6.00;6.00;;;;;;;;5149837;27;45333;-80
2021/08/19 13:25:41;;;;;;;;;6.00;6.00;;;;;;;;5150968;27;45369;-78
2021/08/19 13:28:06;;;;;;;;;6.00;5.00;;;;;;;;5145422;27;45493;-78
2021/08/19 13:30:32;;;;;;;;;10.00;7.00;;;;;;;;5151340;27;45585;-77
2021/08/19 13:32:57;;;;;;;;;5.33;5.33;;;;;;;;5130640;27;45340;-75
2021/08/19 13:35:33;;;;;;;;;6.67;5.67;;;;;;;;5153332;27;45383;-77
2021/08/19 13:38:02;;;;;;;;;6.00;6.00;;;;;;;;5139173;27;45321;-76
2021/08/19 13:40:30;;;;;;;;;6.33;6.33;;;;;;;;5143235;27;45619;-77
2021/08/19 13:42:55;;;;;;;;;6.00;5.00;;;;;;;;5134193;27;45569;-78
2021/08/19 13:45:21;;;;;;;;;5.67;5.00;;;;;;;;5156404;27;45507;-76
2021/08/19 13:47:49;;;;;;;;;4.00;4.00;;;;;;;;5158321;27;45565;-77
2021/08/19 13:50:15;;;;;;;;;5.33;5.33;;;;;;;;5133498;27;45995;-79
2021/08/19 13:52:40;;;;;;;;;7.00;7.00;;;;;;;;5131551;27;45278;-79
2021/08/19 13:55:06;;;;;;;;;7.00;7.00;;;;;;;;5123588;27;45376;-78
2021/08/19 13:57:31;;;;;;;;;7.00;6.00;;;;;;;;5124927;27;45291;-77
2021/08/19 13:59:57;;;;;;;;;5.00;5.00;;;;;;;;5140459;27;45687;-78
2021/08/19 14:02:22;;;;;;;;;5.00;5.00;;;;;;;;5127821;27;45314;-77
2021/08/19 14:04:51;;;;;;;;;6.00;5.00;;;;;;;;5128773;27;45418;-78
2021/08/19 14:07:16;;;;;;;;;4.00;4.00;;;;;;;;5129930;27;46749;-75
2021/08/19 14:09:41;;;;;;;;;5.00;5.00;;;;;;;;5141089;27;46269;-75
2021/08/19 14:12:07;;;;;;;;;4.67;4.67;;;;;;;;5129553;27;45385;-74
2021/08/19 14:14:33;;;;;;;;;5.67;5.00;;;;;;;;5147554;27;45323;-75
2021/08/19 14:16:58;;;;;;;;;4.33;4.33;;;;;;;;5143104;27;45523;-74
2021/08/19 14:19:23;;;;;;;;;4.00;4.00;;;;;;;;5151410;27;46204;-75
2021/08/19 14:21:49;;;;;;;;;4.00;4.00;;;;;;;;5141943;27;45329;-76
2021/08/19 14:24:15;;;;;;;;;4.67;4.67;;;;;;;;5131781;27;45639;-76
2021/08/19 14:26:40;;;;;;;;;6.00;6.00;;;;;;;;5144007;27;45371;-77
2021/08/19 14:29:06;;;;;;;;;4.00;4.00;;;;;;;;5148216;27;46513;-76
2021/08/19 14:31:31;;;;;;;;;4.67;4.00;;;;;;;;5141761;27;45360;-76
2021/08/19 14:33:57;;;;;;;;;5.33;4.67;;;;;;;;5150486;27;45453;-76
2021/08/19 14:36:22;;;;;;;;;4.33;4.33;;;;;;;;5135392;27;45702;-76
2021/08/19 14:38:49;;;;;;;;;5.00;5.00;;;;;;;;5125327;27;46046;-75